Gozo/Qala, Malta
Current Conditions -  °F | °C
As of 10:15 AM on Sunday 26 Oct 2014 (Local Time) from LMML Reporting Station
Few Clouds Few Clouds  
Wind Chill: 70°   Ceiling: Unl
Heat Index: 70°   Visibility: 6mi
Dew Point: 50°   Wind: 14mph
Humidity: 49%   Direction: 350°N
Pressure: 30.09"   Gusts: NA
Location:  36.05°N, 14.27°E
Report Text: LMML 260815Z 35012KT 320V020 9999 FEW031 21/10 Q1019 NOSIG
Loading
Personal Weather Stations






























Interactive Weather Map
Tropical Storm Tracking
New forecast layout! Learn more

10-Day Weather Forecast

Advertisements
Track Severe Weather on mobile